Time;durP1;ratioP1;P1;durP2;ratioP2;P2;SDS_P1;SDS_P2;PMS_P1;PMS_P2;Temp;Humidity;BMP_temperature;BMP_pressure;BME280_temperature;BME280_humidity;BME280_pressure;Samples;Min_cycle;Max_cycle;Signal;HPM_P1;HPM_P2
2023/04/24 00:02:10;;;;;;;6.50;6.03;;;;;;;11.56;100.00;98696.13;10413544;28;20145;-73
2023/04/24 00:07:12;;;;;;;6.60;6.07;;;;;;;11.44;100.00;98712.59;10413814;28;20037;-72
2023/04/24 00:12:14;;;;;;;5.57;4.95;;;;;;;11.47;100.00;98701.06;10412202;28;20096;-73
2023/04/24 00:17:19;;;;;;;6.72;4.75;;;;;;;11.50;100.00;98717.50;10410251;28;20131;-73
2023/04/24 00:22:22;;;;;;;4.22;3.92;;;;;;;11.45;100.00;98714.28;10411219;28;20041;-72
2023/04/24 00:27:23;;;;;;;4.70;4.35;;;;;;;11.57;100.00;98716.25;10412457;28;20044;-72
2023/04/24 00:32:25;;;;;;;4.00;3.70;;;;;;;11.70;100.00;98710.28;10412319;28;20037;-73
2023/04/24 00:37:27;;;;;;;4.38;4.07;;;;;;;11.63;100.00;98707.13;10412122;28;20063;-73
2023/04/24 00:42:29;;;;;;;4.03;3.72;;;;;;;11.72;100.00;98705.75;10408847;28;20387;-73
2023/04/24 00:47:32;;;;;;;3.92;3.65;;;;;;;11.62;100.00;98708.94;10411874;28;20041;-73
2023/04/24 00:52:34;;;;;;;4.70;4.30;;;;;;;11.76;100.00;98702.88;10412843;28;20060;-73
2023/04/24 00:57:37;;;;;;;4.82;4.40;;;;;;;11.66;100.00;98692.97;10409210;28;20400;-73
2023/04/24 01:02:43;;;;;;;4.50;4.10;;;;;;;11.59;100.00;98700.34;10409606;28;20045;-72
2023/04/24 01:07:48;;;;;;;5.57;4.40;;;;;;;11.59;100.00;98697.72;10409803;28;20041;-73
2023/04/24 01:12:51;;;;;;;4.75;4.45;;;;;;;11.49;100.00;98692.13;10409525;28;20546;-72
2023/04/24 01:17:53;;;;;;;4.65;4.35;;;;;;;11.45;100.00;98689.78;10408232;28;20456;-73
2023/04/24 01:22:56;;;;;;;5.13;4.72;;;;;;;11.60;100.00;98697.66;10409147;28;20113;-72
2023/04/24 01:27:58;;;;;;;4.72;4.43;;;;;;;11.73;100.00;98708.31;10409501;28;20087;-72
2023/04/24 01:33:00;;;;;;;4.97;4.57;;;;;;;11.43;100.00;98702.19;10408473;28;20056;-73
2023/04/24 01:38:02;;;;;;;6.35;5.85;;;;;;;11.73;100.00;98702.19;10407951;28;20045;-73
2023/04/24 01:43:04;;;;;;;5.82;5.32;;;;;;;11.58;100.00;98698.66;10409050;28;20405;-71
2023/04/24 01:48:06;;;;;;;5.20;4.72;;;;;;;11.69;100.00;98701.53;10407429;28;20431;-73
2023/04/24 01:53:08;;;;;;;5.35;4.97;;;;;;;11.57;100.00;98695.19;10407791;28;20041;-72
2023/04/24 01:58:10;;;;;;;5.03;4.63;;;;;;;11.36;100.00;98694.63;10408698;28;20048;-71
2023/04/24 02:03:12;;;;;;;5.93;5.45;;;;;;;11.36;100.00;98694.63;10407843;28;20053;-72
2023/04/24 02:08:14;;;;;;;5.75;5.35;;;;;;;11.35;100.00;98692.91;10406773;28;20045;-72
2023/04/24 02:13:15;;;;;;;4.63;4.32;;;;;;;11.34;100.00;98695.66;10407407;28;20117;-72
2023/04/24 02:18:18;;;;;;;5.15;4.75;;;;;;;11.29;100.00;98692.44;10405858;28;20163;-70
2023/04/24 02:23:20;;;;;;;4.88;4.57;;;;;;;11.36;100.00;98688.50;10405416;28;20112;-72
2023/04/24 02:28:21;;;;;;;4.40;4.10;;;;;;;11.37;100.00;98700.72;10410902;28;20045;-71
2023/04/24 02:33:24;;;;;;;5.85;5.15;;;;;;;11.61;100.00;98694.06;10412863;28;20057;-72
2023/04/24 02:38:26;;;;;;;5.22;4.72;;;;;;;11.55;100.00;98696.19;10413480;28;20046;-71
2023/04/24 02:43:28;;;;;;;5.88;5.43;;;;;;;11.41;100.00;98683.81;10415899;28;20117;-72
2023/04/24 02:48:29;;;;;;;5.22;4.88;;;;;;;11.49;100.00;98680.78;10416388;28;20041;-72
2023/04/24 02:53:31;;;;;;;5.00;4.55;;;;;;;11.35;100.00;98687.66;10413398;28;20148;-71
2023/04/24 02:58:33;;;;;;;4.18;3.88;;;;;;;11.30;100.00;98681.81;10412892;28;20524;-71
2023/04/24 03:03:36;;;;;;;6.00;5.60;;;;;;;11.15;100.00;98692.34;10413193;28;20050;-73
2023/04/24 03:08:38;;;;;;;5.35;4.95;;;;;;;11.18;100.00;98681.66;10413617;28;20072;-72
2023/04/24 03:13:39;;;;;;;5.28;4.88;;;;;;;11.09;100.00;98688.25;10414211;28;20135;-72
2023/04/24 03:18:41;;;;;;;6.13;5.63;;;;;;;11.24;100.00;98679.50;10413085;28;20053;-71
2023/04/24 03:23:44;;;;;;;5.80;5.40;;;;;;;11.24;100.00;98679.50;10413687;28;20053;-70
2023/04/24 03:28:46;;;;;;;6.47;5.78;;;;;;;11.56;100.00;98679.50;10414140;28;20037;-72
2023/04/24 03:33:48;;;;;;;6.07;5.57;;;;;;;11.39;100.00;98683.06;10413200;28;20053;-72
2023/04/24 03:38:50;;;;;;;5.55;4.80;;;;;;;11.48;100.00;98684.34;10410795;28;20053;-70
2023/04/24 03:44:02;;;;;;;4.60;3.40;;;;;;;11.42;100.00;98689.94;10412041;28;20159;-71
2023/04/24 03:49:05;;;;;;;4.85;0.90;;;;;;;11.58;100.00;98688.13;10411384;28;20359;-71
2023/04/24 03:54:11;;;;;;;1.02;0.55;;;;;;;11.86;97.47;98698.81;10409924;28;20052;-72
2023/04/24 03:59:14;;;;;;;1.13;0.52;;;;;;;11.91;95.76;98701.19;10410272;28;20042;-72
2023/04/24 04:04:19;;;;;;;1.63;0.73;;;;;;;12.02;94.47;98713.72;10409786;28;20046;-71
2023/04/24 04:09:22;;;;;;;2.25;0.50;;;;;;;12.17;92.00;98717.22;10410351;28;20073;-71
2023/04/24 04:14:23;;;;;;;1.42;0.47;;;;;;;12.06;92.79;98717.84;10410778;28;20045;-71
2023/04/24 04:19:26;;;;;;;0.98;0.70;;;;;;;11.98;92.96;98710.41;10408663;28;20498;-71
2023/04/24 04:24:28;;;;;;;1.00;0.70;;;;;;;12.27;88.82;98713.13;10409511;28;20042;-71
2023/04/24 04:29:32;;;;;;;1.90;0.50;;;;;;;12.39;85.49;98712.34;10409822;28;20084;-71
2023/04/24 04:34:37;;;;;;;1.45;0.70;;;;;;;12.16;89.09;98713.72;10409836;28;20049;-71
2023/04/24 04:39:41;;;;;;;0.75;0.50;;;;;;;12.20;88.17;98714.41;10409495;28;20051;-71
2023/04/24 04:44:57;;;;;;;2.17;0.75;;;;;;;12.06;88.33;98709.97;10409722;28;20528;-72
2023/04/24 04:50:10;;;;;;;1.10;0.50;;;;;;;12.07;89.08;98709.84;10409390;28;20053;-72
2023/04/24 04:55:13;;;;;;;0.70;0.60;;;;;;;12.03;88.96;98710.97;10411476;28;20037;-71
2023/04/24 05:00:37;;;;;;;1.38;0.60;;;;;;;12.09;89.80;98729.06;10408602;28;20045;-70
2023/04/24 05:06:02;;;;;;;0.77;0.50;;;;;;;12.25;88.70;98736.06;10409737;28;20049;-71
2023/04/24 05:11:07;;;;;;;0.80;0.38;;;;;;;12.53;85.63;98732.63;10407725;28;20124;-71
2023/04/24 05:16:10;;;;;;;1.02;0.65;;;;;;;12.65;84.81;98729.22;10409115;28;20057;-71
2023/04/24 05:21:13;;;;;;;0.47;0.47;;;;;;;12.68;85.77;98725.56;10408778;28;20475;-71
2023/04/24 05:26:19;;;;;;;1.85;0.70;;;;;;;12.88;82.83;98726.06;10407868;28;20120;-72
2023/04/24 05:31:21;;;;;;;1.50;0.70;;;;;;;12.99;80.18;98724.53;10407586;28;20107;-72
2023/04/24 05:36:24;;;;;;;1.17;1.00;;;;;;;12.93;81.43;98724.91;10409454;28;20052;-72
2023/04/24 05:41:27;;;;;;;2.28;0.60;;;;;;;12.97;81.63;98724.63;10424996;22;20183;-71
2023/04/24 05:46:29;;;;;;;1.65;0.63;;;;;;;13.20;79.90;98725.81;10408477;28;20069;-71
2023/04/24 05:51:31;;;;;;;0.57;0.40;;;;;;;13.32;77.65;98730.31;10407630;28;20136;-71
2023/04/24 05:56:33;;;;;;;0.70;0.60;;;;;;;13.54;75.22;98740.34;10407096;28;20049;-70
2023/04/24 06:01:38;;;;;;;2.72;1.70;;;;;;;13.77;74.79;98738.03;10406497;28;20041;-71
2023/04/24 06:06:45;;;;;;;0.88;0.50;;;;;;;13.58;75.05;98736.56;10406649;28;20057;-72
2023/04/24 06:11:52;;;;;;;2.20;0.50;;;;;;;13.79;74.49;98739.63;10406524;28;20052;-71
2023/04/24 06:16:57;;;;;;;1.05;0.50;;;;;;;13.87;75.19;98741.78;10407866;28;20430;-72
2023/04/24 06:22:12;;;;;;;1.58;0.57;;;;;;;13.98;72.71;98748.97;10406034;28;20052;-72
2023/04/24 06:27:15;;;;;;;1.92;0.45;;;;;;;14.39;69.64;98746.22;10406351;28;20063;-71
2023/04/24 06:32:17;;;;;;;1.80;0.45;;;;;;;14.32;70.16;98750.22;10389603;28;20057;-72
2023/04/24 06:37:20;;;;;;;1.45;0.60;;;;;;;14.35;72.56;98748.22;10407982;28;20124;-70
2023/04/24 06:42:23;;;;;;;0.80;0.50;;;;;;;14.32;67.77;98747.56;10406440;28;20048;-71
2023/04/24 06:47:25;;;;;;;1.10;0.43;;;;;;;14.28;69.01;98749.56;10408313;28;20053;-71
2023/04/24 06:52:27;;;;;;;0.65;0.40;;;;;;;14.30;68.48;98749.50;10407662;28;20038;-71
2023/04/24 06:57:29;;;;;;;0.88;0.40;;;;;;;14.46;68.52;98747.47;10407993;28;20171;-71
2023/04/24 07:02:31;;;;;;;0.88;0.50;;;;;;;14.72;68.20;98760.75;10407848;28;20409;-71
2023/04/24 07:07:34;;;;;;;1.80;0.50;;;;;;;14.93;66.99;98756.63;10406250;28;20429;-72
2023/04/24 07:12:35;;;;;;;0.68;0.32;;;;;;;14.99;65.53;98769.41;10412633;28;20037;-71
2023/04/24 07:17:38;;;;;;;2.05;0.40;;;;;;;14.75;65.36;98758.75;10430676;28;20057;-71
2023/04/24 07:22:40;;;;;;;0.43;0.40;;;;;;;14.83;65.84;98768.78;10435978;28;20106;-72
2023/04/24 07:27:42;;;;;;;1.77;0.50;;;;;;;14.67;65.74;98768.16;10423498;28;20049;-72
2023/04/24 07:32:44;;;;;;;0.95;0.38;;;;;;;14.83;68.40;98772.28;10455202;28;20089;-72
2023/04/24 07:37:46;;;;;;;0.75;0.20;;;;;;;14.94;65.40;98775.97;10433039;28;20046;-71
2023/04/24 07:42:51;;;;;;;1.20;0.50;;;;;;;15.15;64.68;98777.13;10413435;28;20446;-71
2023/04/24 07:47:52;;;;;;;0.80;0.40;;;;;;;15.23;62.91;98769.50;10412974;28;20072;-71
2023/04/24 07:52:54;;;;;;;1.27;0.50;;;;;;;15.25;62.95;98779.97;10418676;28;20123;-72
2023/04/24 07:57:56;;;;;;;1.17;0.30;;;;;;;15.17;64.13;98787.59;10453184;28;20235;-72
2023/04/24 08:02:58;;;;;;;2.08;0.38;;;;;;;15.42;63.50;98781.44;10454832;28;20485;-72
2023/04/24 08:08:00;;;;;;;1.98;0.40;;;;;;;15.40;61.43;98776.22;10452769;28;20053;-72
2023/04/24 08:13:02;;;;;;;1.80;0.35;;;;;;;15.68;60.61;98785.72;10440403;28;20434;-71
2023/04/24 08:18:04;;;;;;;1.17;0.38;;;;;;;15.96;59.33;98786.34;10421753;28;20129;-71
2023/04/24 08:23:06;;;;;;;1.05;0.30;;;;;;;16.08;58.57;98783.63;10431063;28;20106;-72
2023/04/24 08:28:09;;;;;;;0.77;0.30;;;;;;;15.88;60.12;98794.84;10436014;28;20050;-72
2023/04/24 08:33:10;;;;;;;0.60;0.30;;;;;;;16.03;61.88;98783.13;10412074;28;20053;-72
2023/04/24 08:38:12;;;;;;;1.70;0.50;;;;;;;15.88;60.44;98801.00;10440795;28;20040;-73
2023/04/24 08:43:15;;;;;;;1.60;0.50;;;;;;;15.84;58.43;98798.69;10452570;28;20065;-71
2023/04/24 08:48:17;;;;;;;2.47;0.50;;;;;;;15.89;59.04;98804.47;10452667;28;20048;-72
2023/04/24 08:53:32;;;;;;;1.50;0.63;;;;;;;16.26;60.04;98799.97;10437873;28;20045;-74
2023/04/24 08:58:35;;;;;;;0.55;0.30;;;;;;;16.10;55.68;98794.13;10452231;28;20490;-72
2023/04/24 09:03:38;;;;;;;1.05;0.38;;;;;;;16.22;54.33;98800.31;10412727;28;20049;-72
2023/04/24 09:08:41;;;;;;;1.45;0.40;;;;;;;16.51;57.27;98799.00;10422968;28;20444;-71
2023/04/24 09:13:43;;;;;;;0.82;0.32;;;;;;;17.06;51.57;98799.22;10417878;28;20107;-73
2023/04/24 09:18:45;;;;;;;0.50;0.28;;;;;;;16.66;51.99;98796.97;10418664;28;20045;-73
2023/04/24 09:23:57;;;;;;;0.70;0.30;;;;;;;16.20;53.72;98795.13;10392341;28;20144;-72
2023/04/24 09:28:59;;;;;;;0.82;0.30;;;;;;;16.16;53.54;98801.63;10409593;28;20057;-72
2023/04/24 09:34:05;;;;;;;1.23;0.30;;;;;;;16.37;54.60;98796.50;10410180;28;20045;-72
2023/04/24 09:39:15;;;;;;;1.40;0.30;;;;;;;16.11;54.76;98807.28;10409340;28;20053;-73
2023/04/24 09:44:20;;;;;;;0.60;0.30;;;;;;;16.02;55.29;98799.13;10409343;28;20069;-72
2023/04/24 09:49:27;;;;;;;0.82;0.40;;;;;;;16.06;54.26;98806.75;10409837;28;20085;-73
2023/04/24 09:54:29;;;;;;;1.35;0.35;;;;;;;16.31;53.21;98794.34;10407713;28;20479;-72
2023/04/24 09:59:31;;;;;;;1.35;0.40;;;;;;;16.52;53.12;98789.22;10408720;28;20042;-73
2023/04/24 10:04:56;;;;;;;1.40;0.30;;;;;;;16.37;51.54;98799.16;10409874;28;20046;-72
2023/04/24 10:10:09;;;;;;;1.85;0.30;;;;;;;16.59;52.26;98791.28;10411089;28;20053;-73
2023/04/24 10:15:35;;;;;;;1.50;0.38;;;;;;;16.46;52.49;98793.16;10477704;28;20439;-73
2023/04/24 10:20:44;;;;;;;0.68;0.30;;;;;;;16.64;52.38;98783.84;10494858;28;20102;-72
2023/04/24 10:25:53;;;;;;;1.42;0.30;;;;;;;16.86;50.61;98780.38;10459642;28;20107;-73
2023/04/24 10:31:01;;;;;;;2.58;0.73;;;;;;;17.57;50.52;98769.50;10476321;28;20044;-73
2023/04/24 10:36:21;;;;;;;0.80;0.30;;;;;;;17.84;49.08;98785.03;10476570;28;20101;-75
2023/04/24 10:41:30;;;;;;;0.82;0.30;;;;;;;17.61;49.58;98781.56;10477790;28;20186;-73
2023/04/24 10:46:33;;;;;;;;;;;;;;;17.13;51.25;98785.38;10479773;28;20048;-73
2023/04/24 10:51:55;;;;;;;0.50;0.38;;;;;;;17.38;49.34;98791.38;10486361;28;19955;-74
2023/04/24 10:57:30;;;;;;;0.88;0.30;;;;;;;16.91;50.34;98788.00;10484214;28;20048;-73
2023/04/24 11:02:40;;;;;;;1.23;0.40;;;;;;;16.90;50.57;98794.25;10481224;28;20142;-71
2023/04/24 11:08:13;;;;;;;0.63;0.30;;;;;;;16.63;52.24;98792.72;10480995;28;20086;-73
2023/04/24 11:13:21;;;;;;;0.35;0.30;;;;;;;16.41;52.48;98792.66;10499479;28;20045;-73
2023/04/24 11:18:22;;;;;;;0.75;0.30;;;;;;;16.27;53.69;98791.06;10499323;28;20040;-72
2023/04/24 11:23:24;;;;;;;1.45;0.35;;;;;;;16.31;54.16;98794.34;10499619;28;20413;-72
2023/04/24 11:28:28;;;;;;;1.15;0.43;;;;;;;16.53;52.77;98801.53;10480092;28;20446;-72
2023/04/24 11:33:31;;;;;;;0.63;0.30;;;;;;;16.83;51.68;98793.91;10498087;28;20090;-72
2023/04/24 11:38:33;;;;;;;4.03;0.30;;;;;;;17.34;50.50;98796.06;10497503;28;20391;-72
2023/04/24 11:43:35;;;;;;;1.33;0.30;;;;;;;17.79;47.82;98793.38;10525583;22;20089;-69
2023/04/24 11:48:39;;;;;;;1.48;0.40;;;;;;;17.54;49.07;98788.34;10534613;28;20089;-69
2023/04/24 11:53:41;;;;;;;1.20;0.38;;;;;;;17.36;48.81;98793.31;10535296;28;20119;-69
2023/04/24 11:58:45;;;;;;;1.42;0.45;;;;;;;16.95;51.76;98807.16;10533511;28;20046;-68
2023/04/24 12:03:49;;;;;;;0.57;0.40;;;;;;;16.40;51.54;98812.19;10533867;28;20131;-68
2023/04/24 12:08:54;;;;;;;0.93;0.30;;;;;;;16.17;52.49;98799.81;10534608;28;20119;-68
2023/04/24 12:14:12;;;;;;;1.30;0.30;;;;;;;16.00;51.07;98795.78;10534334;28;20066;-70
2023/04/24 12:19:20;;;;;;;1.08;0.30;;;;;;;15.90;49.32;98819.44;10534108;28;20128;-68
2023/04/24 12:24:21;;;;;;;1.58;0.40;;;;;;;15.83;47.05;98813.75;10534479;28;20064;-69
2023/04/24 12:29:24;;;;;;;0.55;0.40;;;;;;;16.04;47.60;98806.03;10535452;28;20551;-69
2023/04/24 12:34:26;;;;;;;2.22;0.40;;;;;;;16.85;43.48;98799.06;10534757;28;20143;-68
2023/04/24 12:39:27;;;;;;;2.55;0.45;;;;;;;16.96;43.48;98816.84;10533508;28;20150;-68
2023/04/24 12:44:31;;;;;;;0.30;0.28;;;;;;;17.22;46.74;98825.41;10532965;28;20036;-69
2023/04/24 12:49:33;;;;;;;0.43;0.40;;;;;;;16.98;45.09;98821.06;10514630;28;20113;-69
2023/04/24 12:54:34;;;;;;;1.08;0.38;;;;;;;16.77;44.82;98814.75;10532712;28;20052;-69
2023/04/24 12:59:36;;;;;;;1.40;0.50;;;;;;;16.83;44.38;98811.63;10531905;28;20110;-69
2023/04/24 13:04:38;;;;;;;1.20;0.40;;;;;;;17.24;41.88;98815.53;10555649;28;20450;-69
2023/04/24 13:09:40;;;;;;;1.33;0.35;;;;;;;17.50;40.25;98802.84;10573385;28;20136;-68
2023/04/24 13:14:42;;;;;;;1.33;0.50;;;;;;;17.53;39.11;98800.78;10471671;28;20048;-69
2023/04/24 13:19:45;;;;;;;0.70;0.50;;;;;;;18.01;41.46;98791.63;10489804;28;20104;-69
2023/04/24 13:24:50;;;;;;;1.52;0.47;;;;;;;17.37;41.91;98806.47;10471524;28;20127;-71
2023/04/24 13:29:52;;;;;;;1.85;0.52;;;;;;;17.23;39.89;98808.53;10491460;28;20041;-68
2023/04/24 13:34:54;;;;;;;1.40;0.57;;;;;;;17.07;41.46;98817.69;10471469;28;20048;-68
2023/04/24 13:39:55;;;;;;;0.82;0.30;;;;;;;17.07;37.67;98816.84;10489433;28;20454;-69
2023/04/24 13:44:57;;;;;;;0.47;0.30;;;;;;;16.52;38.49;98821.91;10471213;28;20265;-69
2023/04/24 13:49:59;;;;;;;1.60;0.45;;;;;;;16.12;40.69;98816.91;10489333;28;20121;-69
2023/04/24 13:55:01;;;;;;;0.85;0.40;;;;;;;16.49;38.57;98806.19;10488940;28;20049;-69
2023/04/24 14:00:03;;;;;;;0.30;0.20;;;;;;;16.71;39.69;98800.09;10489140;28;20090;-69
2023/04/24 14:05:07;;;;;;;2.65;0.60;;;;;;;16.83;38.48;98809.81;10489091;28;20144;-68
2023/04/24 14:10:10;;;;;;;1.23;0.50;;;;;;;16.62;39.63;98800.81;10470971;28;20044;-68
2023/04/24 14:15:13;;;;;;;1.40;0.50;;;;;;;16.74;40.27;98805.22;10488403;28;20044;-68
2023/04/24 14:20:15;;;;;;;1.25;0.50;;;;;;;16.70;39.70;98790.47;10470244;28;20121;-68
2023/04/24 14:25:16;;;;;;;0.93;0.60;;;;;;;16.70;38.87;98793.13;10495689;28;20066;-68
2023/04/24 14:30:18;;;;;;;0.50;0.38;;;;;;;17.03;39.49;98797.66;10496658;28;20358;-68
2023/04/24 14:35:20;;;;;;;1.15;0.77;;;;;;;16.73;39.10;98794.72;10477962;28;20048;-69
2023/04/24 14:40:22;;;;;;;1.98;0.47;;;;;;;16.70;40.06;98795.78;10496406;28;20469;-68
2023/04/24 14:45:44;;;;;;;1.27;0.50;;;;;;;16.65;39.56;98796.13;10495766;28;20040;-69
2023/04/24 14:50:45;;;;;;;0.70;0.40;;;;;;;16.37;40.43;98791.22;10496918;28;20420;-69
2023/04/24 14:55:47;;;;;;;3.40;0.60;;;;;;;16.35;40.12;98804.59;10496432;28;20041;-69
2023/04/24 15:00:54;;;;;;;0.55;0.50;;;;;;;16.27;39.01;98803.47;10496364;28;20113;-68
2023/04/24 15:05:56;;;;;;;1.35;0.47;;;;;;;16.33;39.34;98806.50;10495880;28;20063;-70
2023/04/24 15:10:58;;;;;;;2.05;0.50;;;;;;;16.15;38.33;98824.63;10494950;28;20127;-68
2023/04/24 15:16:00;;;;;;;0.77;0.40;;;;;;;16.26;39.16;98823.00;10495446;28;20458;-69
2023/04/24 15:21:02;;;;;;;1.55;0.50;;;;;;;16.23;38.11;98824.06;10477388;28;20109;-69
2023/04/24 15:26:04;;;;;;;0.73;0.30;;;;;;;15.75;38.44;98824.03;10494725;28;20112;-69
2023/04/24 15:31:05;;;;;;;1.45;0.40;;;;;;;15.76;38.96;98832.84;10495123;28;20143;-69
2023/04/24 15:36:07;;;;;;;1.77;0.60;;;;;;;15.51;39.94;98837.22;10492837;28;20053;-68
2023/04/24 15:41:10;;;;;;;0.98;0.50;;;;;;;15.66;40.58;98834.47;10493932;28;20481;-68
2023/04/24 15:46:12;;;;;;;0.63;0.50;;;;;;;15.75;40.63;98844.41;10493931;28;20044;-69
2023/04/24 15:51:14;;;;;;;0.85;0.60;;;;;;;15.47;41.71;98846.34;10493709;28;20392;-69
2023/04/24 15:56:15;;;;;;;0.50;0.50;;;;;;;15.54;42.03;98854.72;10492943;28;20175;-69
2023/04/24 16:01:17;;;;;;;2.08;0.70;;;;;;;15.37;42.15;98853.25;10493571;28;20404;-73
2023/04/24 16:06:19;;;;;;;2.08;0.60;;;;;;;15.23;42.97;98856.84;10497251;28;20124;-73
2023/04/24 16:11:21;;;;;;;0.75;0.50;;;;;;;15.35;43.21;98858.63;10479569;28;20116;-71
2023/04/24 16:16:23;;;;;;;0.80;0.80;;;;;;;15.20;44.46;98858.88;10496856;28;20090;-72
2023/04/24 16:21:25;;;;;;;1.05;0.50;;;;;;;15.33;42.54;98865.00;10496259;28;20418;-72
2023/04/24 16:26:27;;;;;;;0.47;0.30;;;;;;;15.07;42.97;98861.50;10477387;28;20148;-72
2023/04/24 16:31:29;;;;;;;1.42;0.47;;;;;;;15.02;43.35;98877.72;10496406;28;20041;-71
2023/04/24 16:36:31;;;;;;;0.70;0.38;;;;;;;14.85;45.16;98894.72;10476116;28;20049;-73
2023/04/24 16:41:33;;;;;;;3.53;0.70;;;;;;;14.46;44.96;98892.91;10493375;28;20090;-72
2023/04/24 16:46:34;;;;;;;1.75;0.52;;;;;;;14.36;45.62;98897.94;10493992;28;20590;-71
2023/04/24 16:51:36;;;;;;;1.23;0.60;;;;;;;14.40;46.18;98898.59;10496085;28;20036;-73
2023/04/24 16:56:38;;;;;;;0.95;0.40;;;;;;;14.33;46.33;98908.72;10478038;28;20114;-72
2023/04/24 17:01:40;;;;;;;1.95;0.60;;;;;;;14.27;47.22;98914.41;10494577;28;20063;-73
2023/04/24 17:06:42;;;;;;;1.02;0.50;;;;;;;14.26;47.06;98912.72;10475949;28;20564;-73
2023/04/24 17:11:43;;;;;;;0.57;0.30;;;;;;;14.13;47.43;98907.38;10494088;28;20044;-71
2023/04/24 17:16:45;;;;;;;0.35;0.32;;;;;;;14.23;47.55;98910.25;10493123;28;20422;-71
2023/04/24 17:21:47;;;;;;;1.00;0.40;;;;;;;13.98;48.33;98918.91;10493147;28;20111;-71
2023/04/24 17:26:49;;;;;;;3.47;1.90;;;;;;;13.69;49.95;98930.47;10473863;28;20154;-71
2023/04/24 17:31:52;;;;;;;0.70;0.70;;;;;;;13.67;50.33;98941.09;10492556;28;20044;-71
2023/04/24 17:36:54;;;;;;;0.45;0.40;;;;;;;13.35;52.18;98957.13;10492646;28;20044;-73
2023/04/24 17:41:56;;;;;;;0.32;0.32;;;;;;;13.31;51.65;98957.41;10512442;22;20044;-72
2023/04/24 17:46:57;;;;;;;0.57;0.43;;;;;;;13.26;53.22;98967.38;10534842;28;20052;-73
2023/04/24 17:51:59;;;;;;;0.45;0.43;;;;;;;13.00;53.28;98971.53;10534431;28;20039;-71
2023/04/24 17:57:01;;;;;;;0.65;0.50;;;;;;;12.93;54.24;98978.97;10515686;28;20055;-71
2023/04/24 18:02:03;;;;;;;1.20;0.30;;;;;;;13.01;52.85;98983.78;10515929;28;20043;-73
2023/04/24 18:07:05;;;;;;;3.35;0.30;;;;;;;12.86;54.20;99004.00;10533827;28;20047;-72
2023/04/24 18:12:06;;;;;;;1.38;0.50;;;;;;;12.63;54.12;99014.06;10515397;28;20116;-73
2023/04/24 18:17:08;;;;;;;2.17;0.47;;;;;;;12.51;54.24;99027.91;10533829;28;20044;-71
2023/04/24 18:22:10;;;;;;;0.88;0.30;;;;;;;12.14;54.54;99030.88;10515173;28;20427;-73
2023/04/24 18:27:12;;;;;;;1.83;0.25;;;;;;;12.02;55.10;99024.50;10533011;28;20052;-72
2023/04/24 18:32:14;;;;;;;2.30;0.50;;;;;;;11.95;55.25;99039.75;10533370;28;20040;-72
2023/04/24 18:37:15;;;;;;;2.25;0.50;;;;;;;11.78;55.86;99047.69;10533797;28;20044;-72
2023/04/24 18:42:17;;;;;;;1.38;0.20;;;;;;;11.82;55.68;99049.19;10515041;28;20040;-70
2023/04/24 18:47:19;;;;;;;0.70;0.43;;;;;;;11.59;55.70;99064.41;10515230;28;20055;-71
2023/04/24 18:52:22;;;;;;;3.63;1.45;;;;;;;11.44;55.97;99067.84;10533708;28;20126;-72
2023/04/24 18:57:24;;;;;;;1.00;0.90;;;;;;;11.26;57.23;99079.28;10514825;28;20048;-72
2023/04/24 19:02:25;;;;;;;1.40;0.60;;;;;;;11.48;56.18;99077.28;10532693;28;20097;-73
2023/04/24 19:07:28;;;;;;;0.47;0.45;;;;;;;11.39;56.26;99088.28;10533223;28;20446;-73
2023/04/24 19:12:29;;;;;;;2.38;1.60;;;;;;;11.36;56.30;99091.03;10540423;28;20070;-71
2023/04/24 19:17:31;;;;;;;2.65;1.90;;;;;;;11.34;57.00;99106.06;10521730;28;20059;-73
2023/04/24 19:22:33;;;;;;;1.35;1.02;;;;;;;11.40;56.55;99099.66;10539772;28;20123;-72
2023/04/24 19:27:35;;;;;;;2.20;1.20;;;;;;;11.53;56.58;99098.94;10521752;28;20062;-73
2023/04/24 19:32:36;;;;;;;1.73;1.48;;;;;;;11.44;57.75;99104.69;10539963;28;20044;-73
2023/04/24 19:37:38;;;;;;;0.68;0.57;;;;;;;11.14;58.58;99122.81;10539296;28;20040;-72
2023/04/24 19:42:42;;;;;;;0.50;0.50;;;;;;;11.24;58.39;99112.69;10538854;28;20040;-71
2023/04/24 19:47:45;;;;;;;0.60;0.60;;;;;;;10.78;60.11;99113.13;10539648;28;20476;-72
2023/04/24 19:52:47;;;;;;;0.77;0.57;;;;;;;10.94;60.01;99105.38;10540172;28;20044;-73
2023/04/24 19:57:49;;;;;;;0.63;0.45;;;;;;;10.78;61.07;99107.03;10539175;28;20094;-71
2023/04/24 20:02:50;;;;;;;0.60;0.60;;;;;;;10.86;60.93;99115.41;10538745;28;20043;-73
2023/04/24 20:07:52;;;;;;;1.55;0.70;;;;;;;10.88;61.51;99112.69;10538900;28;20062;-73
2023/04/24 20:12:54;;;;;;;0.77;0.65;;;;;;;10.83;61.99;99115.56;10538419;28;20062;-72
2023/04/24 20:17:56;;;;;;;1.02;0.70;;;;;;;10.96;60.63;99119.31;10520154;28;20048;-72
2023/04/24 20:22:57;;;;;;;1.02;0.93;;;;;;;10.75;61.62;99123.78;10536937;28;20047;-72
2023/04/24 20:27:59;;;;;;;0.98;0.88;;;;;;;10.74;62.53;99122.09;10538174;28;20047;-72
2023/04/24 20:33:01;;;;;;;1.15;0.80;;;;;;;10.89;61.15;99124.91;10519395;28;20461;-72
2023/04/24 20:38:02;;;;;;;1.10;0.80;;;;;;;10.68;62.74;99132.06;10537904;28;20109;-72
2023/04/24 20:43:06;;;;;;;2.38;1.25;;;;;;;10.58;62.61;99131.59;10536520;28;20055;-72
2023/04/24 20:48:08;;;;;;;1.33;1.00;;;;;;;10.53;63.10;99130.97;10536254;28;20059;-73
2023/04/24 20:53:10;;;;;;;1.33;1.13;;;;;;;10.38;64.21;99129.06;10536693;28;20069;-72
2023/04/24 20:58:12;;;;;;;3.28;1.02;;;;;;;10.47;63.19;99136.50;10517327;28;20651;-72
2023/04/24 21:03:14;;;;;;;2.47;1.10;;;;;;;10.32;64.04;99135.44;10516665;28;20442;-72
2023/04/24 21:08:16;;;;;;;1.33;1.15;;;;;;;10.14;65.29;99144.09;10534872;28;20043;-71
2023/04/24 21:13:18;;;;;;;2.60;1.50;;;;;;;10.10;64.77;99141.63;10534997;28;20063;-72
2023/04/24 21:18:20;;;;;;;2.25;1.30;;;;;;;10.25;65.82;99132.22;10535028;28;20054;-72
2023/04/24 21:23:21;;;;;;;2.33;1.75;;;;;;;10.09;65.40;99137.28;10534835;28;20040;-71
2023/04/24 21:28:24;;;;;;;1.98;1.60;;;;;;;10.16;65.25;99137.84;10516910;28;20079;-71
2023/04/24 21:33:25;;;;;;;2.38;1.40;;;;;;;10.30;64.43;99137.28;10534315;28;20040;-71
2023/04/24 21:38:27;;;;;;;2.20;1.58;;;;;;;10.43;63.76;99127.91;10534806;28;20130;-71
2023/04/24 21:43:30;;;;;;;2.67;1.60;;;;;;;10.19;64.87;99124.59;10534416;28;20036;-72
2023/04/24 21:48:45;;;;;;;1.33;1.10;;;;;;;10.05;65.71;99117.34;10534249;28;20104;-72
2023/04/24 21:53:47;;;;;;;3.85;1.50;;;;;;;10.20;65.34;99115.78;10533852;28;20040;-71
2023/04/24 21:58:49;;;;;;;1.85;1.58;;;;;;;10.19;65.46;99115.88;10533828;28;20047;-72
2023/04/24 22:03:51;;;;;;;2.15;1.67;;;;;;;10.00;66.15;99111.41;10532965;28;20040;-72
2023/04/24 22:08:53;;;;;;;1.58;1.48;;;;;;;9.95;66.55;99105.50;10515180;28;20100;-72
2023/04/24 22:13:55;;;;;;;2.03;1.35;;;;;;;9.79;68.04;99101.88;10532871;28;20047;-71
2023/04/24 22:18:57;;;;;;;2.72;1.70;;;;;;;9.82;67.44;99114.84;10532900;28;20047;-72
2023/04/24 22:23:59;;;;;;;2.42;1.40;;;;;;;9.68;68.15;99110.19;10533080;28;20048;-72
2023/04/24 22:29:00;;;;;;;2.08;1.77;;;;;;;9.73;67.75;99102.97;10515127;28;20051;-72
2023/04/24 22:34:02;;;;;;;1.40;1.30;;;;;;;9.65;68.51;99114.72;10515750;28;20063;-72
2023/04/24 22:39:04;;;;;;;2.88;1.75;;;;;;;9.47;69.82;99114.56;10532912;28;20177;-72
2023/04/24 22:44:06;;;;;;;2.22;1.13;;;;;;;9.32;70.19;99108.19;10518656;28;20113;-72
2023/04/24 22:49:08;;;;;;;3.22;1.48;;;;;;;9.24;70.88;99112.06;10540955;28;20097;-72
2023/04/24 22:54:10;;;;;;;2.60;1.77;;;;;;;9.26;70.16;99110.25;10540445;28;20047;-72
2023/04/24 22:59:12;;;;;;;1.98;1.38;;;;;;;9.38;69.45;99116.72;10541537;28;20494;-72
2023/04/24 23:04:14;;;;;;;1.80;1.58;;;;;;;9.16;70.71;99125.47;10540335;28;20044;-72
2023/04/24 23:09:16;;;;;;;3.20;1.92;;;;;;;8.97;71.35;99124.50;10522526;28;20048;-72
2023/04/24 23:14:17;;;;;;;3.60;1.80;;;;;;;8.88;72.25;99130.13;10540780;28;20157;-72
2023/04/24 23:19:19;;;;;;;2.35;1.80;;;;;;;8.89;72.17;99129.19;10540303;28;20124;-72
2023/04/24 23:24:21;;;;;;;3.80;1.83;;;;;;;8.92;72.67;99136.94;10539090;28;20047;-72
2023/04/24 23:29:24;;;;;;;2.47;2.13;;;;;;;8.82;74.06;99123.34;10520510;28;20063;-72